Time;durP1;ratioP1;P1;durP2;ratioP2;P2;SDS_P1;SDS_P2;PMS_P1;PMS_P2;Temp;Humidity;BMP_temperature;BMP_pressure;BME280_temperature;BME280_humidity;BME280_pressure;Samples;Min_cycle;Max_cycle;Signal;HPM_P1;HPM_P2
2022/08/24 00:00:53;;;;;;;;;;;17.90;99.90;;;;;;5094474;28;19954;-77
2022/08/24 00:03:18;;;;;;;;;;;17.80;99.90;;;;;;5094216;28;20365;-83
2022/08/24 00:05:44;;;;;;;;;;;17.70;99.90;;;;;;5093086;28;19915;-82
2022/08/24 00:08:09;;;;;;;;;;;17.50;99.90;;;;;;5092728;28;20050;-81
2022/08/24 00:10:35;;;;;;;;;;;17.50;99.90;;;;;;5093856;28;19908;-81
2022/08/24 00:13:01;;;;;;;;;;;17.40;99.90;;;;;;5093765;28;19913;-86
2022/08/24 00:15:27;;;;;;;;;;;17.40;99.90;;;;;;5093400;28;19962;-85
2022/08/24 00:17:52;;;;;;;;;;;17.40;99.90;;;;;;5092752;28;19965;-87
2022/08/24 00:20:18;;;;;;;;;;;17.30;99.90;;;;;;5092255;28;19923;-85
2022/08/24 00:22:46;;;;;;;;;;;17.30;99.90;;;;;;5093857;28;19914;-84
2022/08/24 00:25:12;;;;;;;;;;;17.20;99.90;;;;;;5094303;28;19915;-83
2022/08/24 00:27:38;;;;;;;;;;;17.30;99.90;;;;;;5093245;28;19908;-81
2022/08/24 00:30:05;;;;;;;;;;;17.30;99.90;;;;;;5093504;28;19908;-84
2022/08/24 00:32:31;;;;;;;;;;;17.30;99.90;;;;;;5093630;28;19920;-84
2022/08/24 00:34:57;;;;;;;;;;;17.20;99.90;;;;;;5092311;28;19920;-83
2022/08/24 00:37:23;;;;;;;;;;;17.20;99.90;;;;;;5091776;28;19915;-83
2022/08/24 00:39:49;;;;;;;;;;;17.20;99.90;;;;;;5092018;28;20263;-81
2022/08/24 00:42:14;;;;;;;;;;;17.10;99.90;;;;;;5093205;28;19912;-80
2022/08/24 00:44:40;;;;;;;;;;;17.10;99.90;;;;;;5093051;28;19912;-77
2022/08/24 00:47:20;;;;;;;;;;;17.10;99.90;;;;;;5093427;28;19915;-78
2022/08/24 00:50:09;;;;;;;;;;;17.20;99.90;;;;;;5093575;28;19908;-78
2022/08/24 00:52:38;;;;;;;;;;;17.10;99.90;;;;;;5092820;28;19912;-80
2022/08/24 00:55:09;;;;;;;;;;;17.10;99.90;;;;;;5093234;28;19908;-80
2022/08/24 00:57:37;;;;;;;;;;;17.10;99.90;;;;;;5092840;28;20456;-81
2022/08/24 01:00:08;;;;;;;;;;;17.00;99.90;;;;;;5093219;28;19962;-79
2022/08/24 01:02:34;;;;;;;;;;;17.10;99.90;;;;;;5092925;28;19912;-77
2022/08/24 01:05:03;;;;;;;;;;;17.00;99.90;;;;;;5093224;28;19912;-76
2022/08/24 01:07:30;;;;;;;;;;;17.00;99.90;;;;;;5092897;28;20101;-76
2022/08/24 01:09:58;;;;;;;;;;;17.00;99.90;;;;;;5092728;28;19916;-76
2022/08/24 01:12:25;;;;;;;;;;;16.90;99.90;;;;;;5092478;28;19999;-76
2022/08/24 01:14:51;;;;;;;;;;;16.90;99.90;;;;;;5092863;28;19981;-76
2022/08/24 01:20:02;;;;;;;;;;;17.00;99.90;;;;;;5091806;28;19923;-80
2022/08/24 01:22:31;;;;;;;;;;;16.90;99.90;;;;;;5092398;28;19952;-80
2022/08/24 01:24:57;;;;;;;;;;;16.90;99.90;;;;;;5092178;28;19908;-80
2022/08/24 01:27:22;;;;;;;;;;;16.90;99.90;;;;;;5092821;28;20000;-79
2022/08/24 01:29:49;;;;;;;;;;;16.90;99.90;;;;;;5093344;28;20007;-77
2022/08/24 01:32:15;;;;;;;;;;;16.90;99.90;;;;;;5093395;28;19909;-76
2022/08/24 01:34:40;;;;;;;;;;;17.00;99.90;;;;;;5092648;28;19939;-75
2022/08/24 01:37:08;;;;;;;;;;;17.00;99.90;;;;;;5092896;28;19908;-74
2022/08/24 01:39:36;;;;;;;;;;;17.00;99.90;;;;;;5092369;28;19912;-77
2022/08/24 01:42:02;;;;;;;;;;;16.90;99.90;;;;;;5092985;28;19994;-79
2022/08/24 01:44:29;;;;;;;;;;;16.90;99.90;;;;;;5092179;28;19912;-81
2022/08/24 01:46:55;;;;;;;;;;;16.90;99.90;;;;;;5091421;28;19908;-80
2022/08/24 01:49:21;;;;;;;;;;;16.80;99.90;;;;;;5091266;28;19919;-78
2022/08/24 01:51:47;;;;;;;;;;;16.60;99.90;;;;;;5095556;28;20352;-77
2022/08/24 01:54:13;;;;;;;;;;;16.40;99.90;;;;;;5096984;28;19915;-77
2022/08/24 01:56:39;;;;;;;;;;;16.40;99.90;;;;;;5096556;28;19912;-76
2022/08/24 01:59:06;;;;;;;;;;;16.30;99.90;;;;;;5096712;28;20333;-76
2022/08/24 02:01:35;;;;;;;;;;;16.20;99.90;;;;;;5095918;28;20289;-76
2022/08/24 02:04:02;;;;;;;;;;;16.10;99.90;;;;;;5096671;28;19952;-75
2022/08/24 02:06:27;;;;;;;;;;;16.00;99.90;;;;;;5095967;28;19914;-75
2022/08/24 02:08:53;;;;;;;;;;;16.00;99.90;;;;;;5096395;28;20015;-75
2022/08/24 02:11:18;;;;;;;;;;;15.90;99.90;;;;;;5095246;28;19908;-74
2022/08/24 02:13:44;;;;;;;;;;;15.90;99.90;;;;;;5095689;28;19908;-75
2022/08/24 02:16:10;;;;;;;;;;;15.80;99.90;;;;;;5096479;28;19951;-75
2022/08/24 02:18:39;;;;;;;;;;;15.90;99.90;;;;;;5094800;28;20357;-75
2022/08/24 02:21:05;;;;;;;;;;;15.80;99.90;;;;;;5097452;28;19935;-75
2022/08/24 02:23:31;;;;;;;;;;;15.80;99.90;;;;;;5095870;28;19920;-75
2022/08/24 02:25:56;;;;;;;;;;;15.80;99.90;;;;;;5097997;28;20375;-75
2022/08/24 02:28:22;;;;;;;;;;;15.80;99.90;;;;;;5098146;28;19908;-74
2022/08/24 02:30:48;;;;;;;;;;;15.80;99.90;;;;;;5097036;28;20375;-75
2022/08/24 02:33:13;;;;;;;;;;;15.80;99.90;;;;;;5098072;28;19908;-74
2022/08/24 02:35:40;;;;;;;;;;;15.70;99.90;;;;;;5097424;28;20332;-74
2022/08/24 02:38:07;;;;;;;;;;;15.70;99.90;;;;;;5096833;28;19969;-75
2022/08/24 02:40:33;;;;;;;;;;;15.70;99.90;;;;;;5095625;28;19912;-75
2022/08/24 02:42:58;;;;;;;;;;;15.70;99.90;;;;;;5095645;28;19969;-75
2022/08/24 02:45:24;;;;;;;;;;;15.70;99.90;;;;;;5095502;28;19908;-75
2022/08/24 02:47:49;;;;;;;;;;;15.80;99.90;;;;;;5095675;28;19915;-75
2022/08/24 02:50:16;;;;;;;;;;;15.80;99.90;;;;;;5095910;28;19915;-75
2022/08/24 02:52:42;;;;;;;;;;;15.80;99.90;;;;;;5095026;28;19908;-75
2022/08/24 02:55:10;;;;;;;;;;;15.90;99.90;;;;;;5095797;28;20281;-75
2022/08/24 02:57:35;;;;;;;;;;;15.90;99.90;;;;;;5095055;28;19912;-75
2022/08/24 03:00:04;;;;;;;;;;;15.90;99.90;;;;;;5094511;28;20041;-75
2022/08/24 03:02:29;;;;;;;;;;;15.70;99.90;;;;;;5094527;28;19999;-75
2022/08/24 03:04:55;;;;;;;;;;;15.70;99.90;;;;;;5094256;28;20003;-75
2022/08/24 03:07:20;;;;;;;;;;;15.70;99.90;;;;;;5095232;28;20380;-73
2022/08/24 03:09:46;;;;;;;;;;;15.70;99.90;;;;;;5095209;28;19904;-74
2022/08/24 03:12:11;;;;;;;;;;;15.60;99.90;;;;;;5095170;28;20322;-74
2022/08/24 03:14:37;;;;;;;;;;;15.60;99.90;;;;;;5094844;28;19915;-74
2022/08/24 03:17:03;;;;;;;;;;;15.60;99.90;;;;;;5095341;28;19914;-74
2022/08/24 03:19:29;;;;;;;;;;;15.60;99.90;;;;;;5094545;28;19965;-74
2022/08/24 03:21:55;;;;;;;;;;;15.70;99.90;;;;;;5095082;28;19912;-74
2022/08/24 03:24:20;;;;;;;;;;;15.70;99.90;;;;;;5095355;28;19919;-73
2022/08/24 03:26:46;;;;;;;;;;;15.70;99.90;;;;;;5094594;28;19908;-74
2022/08/24 03:29:12;;;;;;;;;;;15.70;99.90;;;;;;5094775;28;19908;-74
2022/08/24 03:31:38;;;;;;;;;;;15.70;99.90;;;;;;5094189;28;19912;-74
2022/08/24 03:34:03;;;;;;;;;;;15.70;99.90;;;;;;5094661;28;19926;-74
2022/08/24 03:36:29;;;;;;;;;;;15.70;99.90;;;;;;5094522;28;19908;-74
2022/08/24 03:38:54;;;;;;;;;;;15.80;99.90;;;;;;5094690;28;19912;-74
2022/08/24 03:41:20;;;;;;;;;;;15.70;99.90;;;;;;5094574;28;19999;-74
2022/08/24 03:43:46;;;;;;;;;;;15.60;99.90;;;;;;5094002;28;20314;-74
2022/08/24 03:46:12;;;;;;;;;;;15.70;99.90;;;;;;5094835;28;19908;-74
2022/08/24 03:48:43;;;;;;;;;;;15.80;99.90;;;;;;5093804;28;20380;-74
2022/08/24 03:51:15;;;;;;;;;;;15.70;99.90;;;;;;5094808;28;19916;-74
2022/08/24 03:53:41;;;;;;;;;;;15.70;99.90;;;;;;5094021;28;19919;-75
2022/08/24 03:56:07;;;;;;;;;;;15.70;99.90;;;;;;5094633;28;19908;-74
2022/08/24 03:58:34;;;;;;;;;;;15.70;99.90;;;;;;5093963;28;20407;-74
2022/08/24 04:01:00;;;;;;;;;;;15.60;99.90;;;;;;5094485;28;20011;-74
2022/08/24 04:03:27;;;;;;;;;;;15.60;99.90;;;;;;5093995;28;19916;-74
2022/08/24 04:05:52;;;;;;;;;;;15.50;99.90;;;;;;5093747;28;19914;-74
2022/08/24 04:08:19;;;;;;;;;;;15.40;99.90;;;;;;5094112;28;19995;-74
2022/08/24 04:10:46;;;;;;;;;;;15.40;99.90;;;;;;5093618;28;19909;-74
2022/08/24 04:13:11;;;;;;;;;;;15.30;99.90;;;;;;5093852;28;19918;-74
2022/08/24 04:15:41;;;;;;;;;;;15.40;99.90;;;;;;5093665;28;19908;-75
2022/08/24 04:18:07;;;;;;;;;;;15.40;99.90;;;;;;5094105;28;19909;-75
2022/08/24 04:20:39;;;;;;;;;;;15.40;99.90;;;;;;5093506;28;19919;-75
2022/08/24 04:23:06;;;;;;;;;;;15.30;99.90;;;;;;5093780;28;19911;-75
2022/08/24 04:25:37;;;;;;;;;;;15.30;99.90;;;;;;5093724;28;20030;-75
2022/08/24 04:28:05;;;;;;;;;;;15.20;99.90;;;;;;5093844;28;20280;-75
2022/08/24 04:30:31;;;;;;;;;;;15.20;99.90;;;;;;5093600;28;20000;-75
2022/08/24 04:32:57;;;;;;;;;;;15.20;99.90;;;;;;5093628;28;19908;-75
2022/08/24 04:35:22;;;;;;;;;;;15.20;99.90;;;;;;5092418;28;19920;-74
2022/08/24 04:37:48;;;;;;;;;;;15.30;99.90;;;;;;5093218;28;19912;-75
2022/08/24 04:40:14;;;;;;;;;;;15.20;99.90;;;;;;5092359;28;19912;-74
2022/08/24 04:42:40;;;;;;;;;;;15.30;99.90;;;;;;5093069;28;19919;-75
2022/08/24 04:45:05;;;;;;;;;;;15.10;99.90;;;;;;5093846;28;19916;-74
2022/08/24 04:47:31;;;;;;;;;;;15.10;99.90;;;;;;5093220;28;20352;-75
2022/08/24 04:49:56;;;;;;;;;;;15.10;99.90;;;;;;5092856;28;19950;-74
2022/08/24 04:52:23;;;;;;;;;;;15.00;99.90;;;;;;5093582;28;20319;-75
2022/08/24 04:54:48;;;;;;;;;;;15.00;99.90;;;;;;5092844;28;19908;-75
2022/08/24 04:57:14;;;;;;;;;;;15.00;99.90;;;;;;5093321;28;19908;-75
2022/08/24 04:59:40;;;;;;;;;;;14.90;99.90;;;;;;5091443;28;19912;-75
2022/08/24 05:02:05;;;;;;;;;;;14.90;99.90;;;;;;5093324;28;19955;-74
2022/08/24 05:04:31;;;;;;;;;;;14.90;99.90;;;;;;5093364;28;19959;-75
2022/08/24 05:06:56;;;;;;;;;;;14.90;99.90;;;;;;5093132;28;20321;-74
2022/08/24 05:09:22;;;;;;;;;;;14.90;99.90;;;;;;5093052;28;20631;-74
2022/08/24 05:11:48;;;;;;;;;;;15.00;99.90;;;;;;5092749;28;19908;-74
2022/08/24 05:14:14;;;;;;;;;;;15.10;99.90;;;;;;5093206;28;19908;-74
2022/08/24 05:16:39;;;;;;;;;;;15.00;99.90;;;;;;5092494;28;19908;-74
2022/08/24 05:19:06;;;;;;;;;;;15.00;99.90;;;;;;5093112;28;20070;-74
2022/08/24 05:21:32;;;;;;;;;;;15.00;99.90;;;;;;5093194;28;19916;-74
2022/08/24 05:23:57;;;;;;;;;;;15.00;99.90;;;;;;5092314;28;19914;-74
2022/08/24 05:26:25;;;;;;;;;;;15.10;99.90;;;;;;5092930;28;19999;-74
2022/08/24 05:29:00;;;;;;;;;;;15.00;99.90;;;;;;5092216;28;20646;-74
2022/08/24 05:31:27;;;;;;;;;;;15.00;99.90;;;;;;5093142;28;19908;-74
2022/08/24 05:33:54;;;;;;;;;;;15.10;99.90;;;;;;5092198;28;19931;-74
2022/08/24 05:36:19;;;;;;;;;;;15.10;99.90;;;;;;5092929;28;20010;-74
2022/08/24 05:38:46;;;;;;;;;;;15.10;99.90;;;;;;5092223;28;20011;-74
2022/08/24 05:41:12;;;;;;;;;;;15.10;99.90;;;;;;5092801;28;19916;-74
2022/08/24 05:43:38;;;;;;;;;;;15.10;99.90;;;;;;5092298;28;20250;-74
2022/08/24 05:46:04;;;;;;;;;;;15.10;99.90;;;;;;5092744;28;19962;-74
2022/08/24 05:48:29;;;;;;;;;;;15.10;99.90;;;;;;5092885;28;19908;-73
2022/08/24 05:50:56;;;;;;;;;;;15.10;99.90;;;;;;5092134;28;19912;-75
2022/08/24 05:53:22;;;;;;;;;;;15.10;99.90;;;;;;5091703;28;20254;-75
2022/08/24 05:55:47;;;;;;;;;;;15.10;99.90;;;;;;5091881;28;19908;-74
2022/08/24 05:58:13;;;;;;;;;;;15.10;99.90;;;;;;5090912;28;19908;-74
2022/08/24 06:00:39;;;;;;;;;;;15.20;99.90;;;;;;5091052;28;19921;-75
2022/08/24 06:03:04;;;;;;;;;;;15.20;99.90;;;;;;5091549;28;19915;-74
2022/08/24 06:05:30;;;;;;;;;;;15.20;99.90;;;;;;5092655;28;19915;-74
2022/08/24 06:07:55;;;;;;;;;;;15.20;99.90;;;;;;5091640;28;20246;-74
2022/08/24 06:10:21;;;;;;;;;;;15.20;99.90;;;;;;5092206;28;19920;-74
2022/08/24 06:12:47;;;;;;;;;;;15.30;99.90;;;;;;5091930;28;20304;-74
2022/08/24 06:15:13;;;;;;;;;;;15.20;99.90;;;;;;5092286;28;19908;-74
2022/08/24 06:17:39;;;;;;;;;;;15.30;99.90;;;;;;5091208;28;20345;-76
2022/08/24 06:20:05;;;;;;;;;;;15.30;99.90;;;;;;5092353;28;19912;-75
2022/08/24 06:22:31;;;;;;;;;;;15.40;99.90;;;;;;5092513;28;19920;-76
2022/08/24 06:27:40;;;;;;;;;;;15.30;99.90;;;;;;5091786;28;19934;-75
2022/08/24 06:30:08;;;;;;;;;;;15.30;99.90;;;;;;5092536;28;20393;-75
2022/08/24 06:32:34;;;;;;;;;;;15.40;99.90;;;;;;5091070;28;19959;-75
2022/08/24 06:35:00;;;;;;;;;;;15.40;99.90;;;;;;5091400;28;19994;-74
2022/08/24 06:37:26;;;;;;;;;;;15.50;99.90;;;;;;5094160;28;20381;-73
2022/08/24 06:39:53;;;;;;;;;;;15.50;99.90;;;;;;5095158;28;19973;-75
2022/08/24 06:42:18;;;;;;;;;;;15.60;99.90;;;;;;5095801;28;19939;-75
2022/08/24 06:44:44;;;;;;;;;;;15.60;99.90;;;;;;5095107;28;20408;-74
2022/08/24 06:47:10;;;;;;;;;;;15.70;99.90;;;;;;5095873;28;19952;-74
2022/08/24 06:49:36;;;;;;;;;;;15.80;99.90;;;;;;5095735;28;20273;-74
2022/08/24 06:52:03;;;;;;;;;;;15.90;99.90;;;;;;5094714;28;19965;-74
2022/08/24 06:54:28;;;;;;;;;;;15.90;99.90;;;;;;5094267;28;19908;-74
2022/08/24 06:56:55;;;;;;;;;;;16.00;99.90;;;;;;5093788;28;20246;-74
2022/08/24 06:59:20;;;;;;;;;;;15.90;99.90;;;;;;5095421;28;19923;-74
2022/08/24 07:01:46;;;;;;;;;;;16.00;99.90;;;;;;5094947;28;20307;-75
2022/08/24 07:04:12;;;;;;;;;;;16.00;99.90;;;;;;5095486;28;19915;-74
2022/08/24 07:06:37;;;;;;;;;;;16.10;99.90;;;;;;5095470;28;20001;-74
2022/08/24 07:09:03;;;;;;;;;;;16.10;99.90;;;;;;5094628;28;19908;-74
2022/08/24 07:11:29;;;;;;;;;;;16.10;99.90;;;;;;5095146;28;19998;-74
2022/08/24 07:13:54;;;;;;;;;;;16.10;99.90;;;;;;5094760;28;20004;-74
2022/08/24 07:16:20;;;;;;;;;;;16.10;99.90;;;;;;5095073;28;19912;-74
2022/08/24 07:18:46;;;;;;;;;;;16.30;99.90;;;;;;5094577;28;19935;-74
2022/08/24 07:21:11;;;;;;;;;;;16.20;99.90;;;;;;5094989;28;19919;-75
2022/08/24 07:23:37;;;;;;;;;;;16.20;99.90;;;;;;5095169;28;20338;-75
2022/08/24 07:26:08;;;;;;;;;;;16.20;99.90;;;;;;5094064;28;19991;-76
2022/08/24 07:28:34;;;;;;;;;;;16.30;99.90;;;;;;5094857;28;19977;-73
2022/08/24 07:31:00;;;;;;;;;;;16.50;99.90;;;;;;5094854;28;20325;-72
2022/08/24 07:33:25;;;;;;;;;;;16.60;99.90;;;;;;5095008;28;19959;-74
2022/08/24 07:35:51;;;;;;;;;;;16.70;99.90;;;;;;5093994;28;19943;-73
2022/08/24 07:38:17;;;;;;;;;;;16.90;99.90;;;;;;5094727;28;20368;-73
2022/08/24 07:40:44;;;;;;;;;;;17.10;99.90;;;;;;5095205;28;19999;-74
2022/08/24 07:43:11;;;;;;;;;;;17.10;99.90;;;;;;5094547;28;19968;-73
2022/08/24 07:45:38;;;;;;;;;;;17.20;99.90;;;;;;5094826;28;20384;-74
2022/08/24 07:48:04;;;;;;;;;;;17.20;99.90;;;;;;5093009;28;19912;-75
2022/08/24 07:50:29;;;;;;;;;;;17.10;99.90;;;;;;5094677;28;19915;-75
2022/08/24 07:52:55;;;;;;;;;;;17.20;99.90;;;;;;5094073;28;19938;-76
2022/08/24 07:55:21;;;;;;;;;;;17.20;99.90;;;;;;5094448;28;20026;-74
2022/08/24 07:57:46;;;;;;;;;;;17.20;99.90;;;;;;5094091;28;20315;-76
2022/08/24 08:00:14;;;;;;;;;;;17.30;99.90;;;;;;5094350;28;19912;-73
2022/08/24 08:02:41;;;;;;;;;;;17.30;99.90;;;;;;5094455;28;19959;-74
2022/08/24 08:05:07;;;;;;;;;;;17.30;99.90;;;;;;5093750;28;19950;-73
2022/08/24 08:07:33;;;;;;;;;;;17.40;99.90;;;;;;5094039;28;19908;-73
2022/08/24 08:10:00;;;;;;;;;;;17.40;99.90;;;;;;5093752;28;19987;-73
2022/08/24 08:12:26;;;;;;;;;;;17.50;99.90;;;;;;5094275;28;19908;-73
2022/08/24 08:14:51;;;;;;;;;;;17.50;99.90;;;;;;5093632;28;19915;-73
2022/08/24 08:17:17;;;;;;;;;;;17.30;99.90;;;;;;5094175;28;19908;-73
2022/08/24 08:19:42;;;;;;;;;;;17.40;99.90;;;;;;5094080;28;20045;-72
2022/08/24 08:24:53;;;;;;;;;;;17.40;99.90;;;;;;5093373;28;19964;-73
2022/08/24 08:27:20;;;;;;;;;;;17.40;99.90;;;;;;5092649;28;19908;-73
2022/08/24 08:29:47;;;;;;;;;;;17.40;99.90;;;;;;5093818;28;19908;-73
2022/08/24 08:32:15;;;;;;;;;;;17.40;99.90;;;;;;5093500;28;19951;-73
2022/08/24 08:34:42;;;;;;;;;;;17.50;99.90;;;;;;5093505;28;20408;-73
2022/08/24 08:37:07;;;;;;;;;;;17.40;99.90;;;;;;5093201;28;20369;-73
2022/08/24 08:39:33;;;;;;;;;;;17.40;99.90;;;;;;5093589;28;19912;-73
2022/08/24 08:42:07;;;;;;;;;;;17.50;99.90;;;;;;5091191;28;19912;-73
2022/08/24 08:44:42;;;;;;;;;;;17.50;99.90;;;;;;5092028;28;19908;-74
2022/08/24 08:47:19;;;;;;;;;;;17.60;99.90;;;;;;5092782;28;20165;-74
2022/08/24 08:49:44;;;;;;;;;;;17.70;99.90;;;;;;5093243;28;19916;-72
2022/08/24 08:52:10;;;;;;;;;;;17.70;99.90;;;;;;5092977;28;19912;-73
2022/08/24 08:54:47;;;;;;;;;;;17.70;99.90;;;;;;5093273;28;19914;-72
2022/08/24 08:57:18;;;;;;;;;;;17.80;99.90;;;;;;5091756;28;19915;-73
2022/08/24 08:59:47;;;;;;;;;;;17.70;99.90;;;;;;5093155;28;19999;-73
2022/08/24 09:02:16;;;;;;;;;;;17.80;99.90;;;;;;5092864;28;20281;-73
2022/08/24 09:04:53;;;;;;;;;;;17.90;99.90;;;;;;5094785;28;19930;-73
2022/08/24 09:07:37;;;;;;;;;;;17.80;99.90;;;;;;5094046;28;19932;-74
2022/08/24 09:10:03;;;;;;;;;;;17.80;99.90;;;;;;5092710;28;19969;-73
2022/08/24 09:12:49;;;;;;;;;;;17.80;99.90;;;;;;5092958;28;19912;-73
2022/08/24 09:15:33;;;;;;;;;;;17.70;99.90;;;;;;5092356;28;19908;-73
2022/08/24 09:18:16;;;;;;;;;;;17.80;99.90;;;;;;5093027;28;20533;-74
2022/08/24 09:21:02;;;;;;;;;;;17.90;99.90;;;;;;5094531;28;20081;-74
2022/08/24 09:23:39;;;;;;;;;;;17.90;99.90;;;;;;5093458;28;19930;-74
2022/08/24 09:26:05;;;;;;;;;;;18.10;99.90;;;;;;5093218;28;19908;-73
2022/08/24 09:28:41;;;;;;;;;;;18.10;99.90;;;;;;5092927;28;19920;-73
2022/08/24 09:31:22;;;;;;;;;;;18.10;99.90;;;;;;5092467;28;20272;-73
2022/08/24 09:33:50;;;;;;;;;;;18.20;99.90;;;;;;5092800;28;19920;-73
2022/08/24 09:36:23;;;;;;;;;;;18.30;99.90;;;;;;5092288;28;19996;-74
2022/08/24 09:39:00;;;;;;;;;;;18.30;99.90;;;;;;5093727;28;19912;-73
2022/08/24 09:41:43;;;;;;;;;;;18.30;99.90;;;;;;5093020;28;19920;-74
2022/08/24 09:44:38;;;;;;;;;;;18.40;99.90;;;;;;5092090;28;19908;-73
2022/08/24 09:47:03;;;;;;;;;;;18.50;99.90;;;;;;5082402;28;19908;-74
2022/08/24 09:49:29;;;;;;;;;;;18.60;99.90;;;;;;5092806;28;20285;-74
2022/08/24 09:52:01;;;;;;;;;;;18.70;99.90;;;;;;5092151;28;19914;-75
2022/08/24 09:54:29;;;;;;;;;;;18.70;99.90;;;;;;5091501;28;19908;-74
2022/08/24 09:57:10;;;;;;;;;;;18.90;99.90;;;;;;5091898;28;20349;-74
2022/08/24 09:59:43;;;;;;;;;;;19.00;99.90;;;;;;5092542;28;19919;-73
2022/08/24 10:02:27;;;;;;;;;;;19.00;99.90;;;;;;5092392;28;20391;-73
2022/08/24 10:05:01;;;;;;;;;;;18.90;99.90;;;;;;5091413;28;19915;-73
2022/08/24 10:07:35;;;;;;;;;;;18.80;99.90;;;;;;5093425;28;19970;-73
2022/08/24 10:10:10;;;;;;;;;;;18.80;99.90;;;;;;5092061;28;20323;-73
2022/08/24 10:12:35;;;;;;;;;;;18.80;99.90;;;;;;5095138;28;19946;-73
2022/08/24 10:15:24;;;;;;;;;;;18.70;99.90;;;;;;5095789;28;19912;-73
2022/08/24 10:18:08;;;;;;;;;;;18.80;99.90;;;;;;5090550;28;19915;-73
2022/08/24 10:20:53;;;;;;;;;;;18.80;99.90;;;;;;5096334;28;20012;-73
2022/08/24 10:23:18;;;;;;;;;;;19.00;99.90;;;;;;5095636;28;20462;-73
2022/08/24 10:26:08;;;;;;;;;;;19.10;99.90;;;;;;5096112;28;19916;-74
2022/08/24 10:28:46;;;;;;;;;;;19.20;99.90;;;;;;5096238;28;19953;-73
2022/08/24 10:31:21;;;;;;;;;;;19.30;99.90;;;;;;5095618;28;20363;-73
2022/08/24 10:33:47;;;;;;;;;;;19.40;99.90;;;;;;5096157;28;19915;-73
2022/08/24 10:36:12;;;;;;;;;;;19.50;99.90;;;;;;5095368;28;19908;-73
2022/08/24 10:41:41;;;;;;;;;;;19.30;99.90;;;;;;5096146;28;19946;-73
2022/08/24 10:44:30;;;;;;;;;;;19.40;99.90;;;;;;5095678;28;19999;-72
2022/08/24 10:46:55;;;;;;;;;;;19.40;99.90;;;;;;5089585;28;19951;-74
2022/08/24 10:49:27;;;;;;;;;;;19.40;99.90;;;;;;5096845;28;19912;-74
2022/08/24 10:52:01;;;;;;;;;;;19.50;99.90;;;;;;5096683;28;19958;-74
2022/08/24 10:54:31;;;;;;;;;;;19.50;99.90;;;;;;5096218;28;19948;-74
2022/08/24 10:57:15;;;;;;;;;;;19.60;99.90;;;;;;5096005;28;19908;-74
2022/08/24 10:59:41;;;;;;;;;;;19.70;99.90;;;;;;5095958;28;19916;-73
2022/08/24 11:02:09;;;;;;;;;;;19.60;99.90;;;;;;5096268;28;19962;-73
2022/08/24 11:04:35;;;;;;;;;;;19.60;99.90;;;;;;5095944;28;20001;-73
2022/08/24 11:07:03;;;;;;;;;;;19.60;99.90;;;;;;5096261;28;19953;-74
2022/08/24 11:09:55;;;;;;;;;;;19.60;99.90;;;;;;5095443;28;19916;-73
2022/08/24 11:12:38;;;;;;;;;;;19.60;99.90;;;;;;5092333;28;20353;-73
2022/08/24 11:15:09;;;;;;;;;;;19.60;99.90;;;;;;5094684;28;19908;-74
2022/08/24 11:17:36;;;;;;;;;;;19.70;99.90;;;;;;5095294;28;20370;-73
2022/08/24 11:20:23;;;;;;;;;;;19.70;99.90;;;;;;5094691;28;19916;-73
2022/08/24 11:23:08;;;;;;;;;;;19.70;99.90;;;;;;5095244;28;19912;-74
2022/08/24 11:25:36;;;;;;;;;;;19.70;99.90;;;;;;5095159;28;19908;-74
2022/08/24 11:28:04;;;;;;;;;;;19.60;99.90;;;;;;5095617;28;20003;-74
2022/08/24 11:30:30;;;;;;;;;;;19.60;99.90;;;;;;5097216;28;20307;-73
2022/08/24 11:32:58;;;;;;;;;;;19.50;99.90;;;;;;5078505;28;19908;-74
2022/08/24 11:35:26;;;;;;;;;;;19.60;99.90;;;;;;5094364;28;19993;-75
2022/08/24 11:37:54;;;;;;;;;;;19.70;99.90;;;;;;5095989;28;19912;-77
2022/08/24 11:40:21;;;;;;;;;;;19.70;99.90;;;;;;5093265;28;19918;-73
2022/08/24 11:43:05;;;;;;;;;;;19.80;99.90;;;;;;5096017;28;19934;-73
2022/08/24 11:45:41;;;;;;;;;;;19.80;99.90;;;;;;5095977;28;19908;-73
2022/08/24 11:48:14;;;;;;;;;;;19.80;99.90;;;;;;5094885;28;19908;-73
2022/08/24 11:50:39;;;;;;;;;;;19.80;99.90;;;;;;5094794;28;20369;-73
2022/08/24 11:53:20;;;;;;;;;;;19.80;99.90;;;;;;5095981;28;19917;-74
2022/08/24 11:56:06;;;;;;;;;;;19.80;99.90;;;;;;5094263;28;19912;-74
2022/08/24 11:58:32;;;;;;;;;;;19.80;99.90;;;;;;5072786;28;19915;-75
2022/08/24 12:01:01;;;;;;;;;;;20.00;99.90;;;;;;5094879;28;19991;-73
2022/08/24 12:03:56;;;;;;;;;;;20.00;99.90;;;;;;5094913;28;19915;-75
2022/08/24 12:06:28;;;;;;;;;;;20.10;99.90;;;;;;5094179;28;19965;-75
2022/08/24 12:08:56;;;;;;;;;;;20.00;99.90;;;;;;5093534;28;19915;-74
2022/08/24 12:11:33;;;;;;;;;;;20.00;99.90;;;;;;5093670;28;19912;-74
2022/08/24 12:14:16;;;;;;;;;;;20.10;99.90;;;;;;5093725;28;19908;-74
2022/08/24 12:16:56;;;;;;;;;;;20.10;99.90;;;;;;5092705;28;19908;-73
2022/08/24 12:19:36;;;;;;;;;;;20.20;99.90;;;;;;5093152;28;20096;-73
2022/08/24 12:22:06;;;;;;;;;;;20.20;99.90;;;;;;5094394;28;19923;-73
2022/08/24 12:24:37;;;;;;;;;;;20.30;99.90;;;;;;5094030;28;19912;-74
2022/08/24 12:27:11;;;;;;;;;;;20.30;99.90;;;;;;5093543;28;19908;-75
2022/08/24 12:29:41;;;;;;;;;;;20.20;99.90;;;;;;5092561;28;19931;-73
2022/08/24 12:32:12;;;;;;;;;;;20.20;99.90;;;;;;5093019;28;19910;-74
2022/08/24 12:34:38;;;;;;;;;;;20.30;99.90;;;;;;5092981;28;19920;-74
2022/08/24 12:37:11;;;;;;;;;;;20.40;99.90;;;;;;5093553;28;19914;-74
2022/08/24 12:39:55;;;;;;;;;;;20.40;99.90;;;;;;5093412;28;19959;-73
2022/08/24 12:42:39;;;;;;;;;;;20.50;99.90;;;;;;5092906;28;19920;-74
2022/08/24 12:45:07;;;;;;;;;;;20.60;99.90;;;;;;5091862;28;19908;-76
2022/08/24 12:47:39;;;;;;;;;;;20.60;99.90;;;;;;5093384;28;19908;-73
2022/08/24 12:50:14;;;;;;;;;;;20.70;99.90;;;;;;5094398;28;19908;-75
2022/08/24 12:52:51;;;;;;;;;;;20.80;99.90;;;;;;5093778;28;19908;-74
2022/08/24 12:55:36;;;;;;;;;;;20.90;99.90;;;;;;5093333;28;20360;-75
2022/08/24 12:58:11;;;;;;;;;;;21.00;99.90;;;;;;5094007;28;19912;-74
2022/08/24 13:00:42;;;;;;;;;;;21.10;99.90;;;;;;5092868;28;20254;-75
2022/08/24 13:03:22;;;;;;;;;;;21.10;99.90;;;;;;5092896;28;20345;-73
2022/08/24 13:05:51;;;;;;;;;;;21.30;99.90;;;;;;5093436;28;19915;-73
2022/08/24 13:08:21;;;;;;;;;;;21.40;99.90;;;;;;5092919;28;19997;-74
2022/08/24 13:10:58;;;;;;;;;;;21.50;99.90;;;;;;5093149;28;19908;-73
2022/08/24 13:13:39;;;;;;;;;;;21.30;99.90;;;;;;5092381;28;19908;-74
2022/08/24 13:16:04;;;;;;;;;;;21.10;99.90;;;;;;5093287;28;19931;-73
2022/08/24 13:18:53;;;;;;;;;;;20.90;99.90;;;;;;5092698;28;20365;-73
2022/08/24 13:21:36;;;;;;;;;;;20.80;99.90;;;;;;5087304;28;20326;-74
2022/08/24 13:24:20;;;;;;;;;;;20.80;99.90;;;;;;5093455;28;19914;-74
2022/08/24 13:26:46;;;;;;;;;;;20.80;99.90;;;;;;5093156;28;19914;-74
2022/08/24 13:29:13;;;;;;;;;;;20.80;99.90;;;;;;5092256;28;20276;-74
2022/08/24 13:31:47;;;;;;;;;;;20.80;99.90;;;;;;5093489;28;19939;-75
2022/08/24 13:34:13;;;;;;;;;;;20.80;99.90;;;;;;5092139;28;19924;-74
2022/08/24 13:36:43;;;;;;;;;;;20.90;99.90;;;;;;5093001;28;19915;-73
2022/08/24 13:39:11;;;;;;;;;;;20.90;99.90;;;;;;5092764;28;20327;-75
2022/08/24 13:41:47;;;;;;;;;;;21.00;99.90;;;;;;5092684;28;19965;-74
2022/08/24 13:44:22;;;;;;;;;;;21.00;99.90;;;;;;5092249;28;19908;-74
2022/08/24 13:47:07;;;;;;;;;;;21.00;99.90;;;;;;5094122;28;19914;-74
2022/08/24 13:49:45;;;;;;;;;;;20.90;99.90;;;;;;5096022;28;20067;-74
2022/08/24 13:52:13;;;;;;;;;;;20.90;99.90;;;;;;5096355;28;19908;-75
2022/08/24 13:54:42;;;;;;;;;;;20.80;99.90;;;;;;5095566;28;19915;-74
2022/08/24 13:57:19;;;;;;;;;;;20.80;99.90;;;;;;5097044;28;20057;-74
2022/08/24 13:59:48;;;;;;;;;;;20.80;99.90;;;;;;5096915;28;20372;-74
2022/08/24 14:02:14;;;;;;;;;;;20.80;99.90;;;;;;5096091;28;19912;-74
2022/08/24 14:04:43;;;;;;;;;;;20.80;99.90;;;;;;5097104;28;19915;-74
2022/08/24 14:07:38;;;;;;;;;;;20.80;99.90;;;;;;5096851;28;19931;-74
2022/08/24 14:10:03;;;;;;;;;;;20.70;99.90;;;;;;5058543;28;20101;-74
2022/08/24 14:12:29;;;;;;;;;;;20.80;99.90;;;;;;5096115;28;19951;-74
2022/08/24 14:15:14;;;;;;;;;;;20.80;99.90;;;;;;5096431;28;19966;-74
2022/08/24 14:17:52;;;;;;;;;;;20.70;99.90;;;;;;5096487;28;19915;-74
2022/08/24 14:20:17;;;;;;;;;;;20.70;99.90;;;;;;5095360;28;19917;-77
2022/08/24 14:22:59;;;;;;;;;;;20.60;99.90;;;;;;5094142;28;20029;-75
2022/08/24 14:25:29;;;;;;;;;;;20.60;99.90;;;;;;5096133;28;19909;-74
2022/08/24 14:27:57;;;;;;;;;;;20.50;99.90;;;;;;5095949;28;19943;-75
2022/08/24 14:30:23;;;;;;;;;;;20.50;99.90;;;;;;5095490;28;19908;-74
2022/08/24 14:33:02;;;;;;;;;;;20.50;99.90;;;;;;5095874;28;20264;-75
2022/08/24 14:35:57;;;;;;;;;;;20.50;99.90;;;;;;5094812;28;19994;-74
2022/08/24 14:38:34;;;;;;;;;;;20.50;99.90;;;;;;5095287;28;20365;-74
2022/08/24 14:41:17;;;;;;;;;;;20.50;99.90;;;;;;5095771;28;19916;-75